sensor_id;sensor_type;location;lat;lon;timestamp;P1;durP1;ratioP1;P2;durP2;ratioP2
17818;SDS011;9034;50.284;19.310;2023-07-30T00:00:07;3.88;;;2.40;;
17818;SDS011;9034;50.284;19.310;2023-07-30T00:01:12;2.20;;;2.00;;
17818;SDS011;9034;50.284;19.310;2023-07-30T00:02:14;2.20;;;2.00;;
17818;SDS011;9034;50.284;19.310;2023-07-30T00:03:17;2.63;;;2.22;;
17818;SDS011;9034;50.284;19.310;2023-07-30T00:04:19;6.05;;;2.00;;
17818;SDS011;9034;50.284;19.310;2023-07-30T00:05:21;1.77;;;1.67;;
17818;SDS011;9034;50.284;19.310;2023-07-30T00:06:23;3.63;;;1.90;;
17818;SDS011;9034;50.284;19.310;2023-07-30T00:07:25;2.30;;;1.88;;
17818;SDS011;9034;50.284;19.310;2023-07-30T00:08:28;2.80;;;1.85;;
17818;SDS011;9034;50.284;19.310;2023-07-30T00:09:30;2.30;;;2.08;;
17818;SDS011;9034;50.284;19.310;2023-07-30T00:10:34;1.65;;;1.55;;
17818;SDS011;9034;50.284;19.310;2023-07-30T00:11:36;3.13;;;1.75;;
17818;SDS011;9034;50.284;19.310;2023-07-30T00:12:40;1.85;;;1.75;;
17818;SDS011;9034;50.284;19.310;2023-07-30T00:13:42;1.80;;;1.70;;
17818;SDS011;9034;50.284;19.310;2023-07-30T00:14:46;2.17;;;1.95;;
17818;SDS011;9034;50.284;19.310;2023-07-30T00:15:48;3.40;;;2.17;;
17818;SDS011;9034;50.284;19.310;2023-07-30T00:16:51;2.35;;;1.92;;
17818;SDS011;9034;50.284;19.310;2023-07-30T00:17:53;2.58;;;1.95;;
17818;SDS011;9034;50.284;19.310;2023-07-30T00:18:56;2.47;;;2.00;;
17818;SDS011;9034;50.284;19.310;2023-07-30T00:19:58;2.53;;;2.20;;
17818;SDS011;9034;50.284;19.310;2023-07-30T00:21:01;2.00;;;1.80;;
17818;SDS011;9034;50.284;19.310;2023-07-30T00:22:03;2.17;;;1.98;;
17818;SDS011;9034;50.284;19.310;2023-07-30T00:23:06;2.03;;;1.90;;
17818;SDS011;9034;50.284;19.310;2023-07-30T00:24:07;2.20;;;2.00;;
17818;SDS011;9034;50.284;19.310;2023-07-30T00:25:10;2.35;;;2.10;;
17818;SDS011;9034;50.284;19.310;2023-07-30T00:26:12;1.95;;;1.83;;
17818;SDS011;9034;50.284;19.310;2023-07-30T00:27:15;2.58;;;1.85;;
17818;SDS011;9034;50.284;19.310;2023-07-30T00:28:17;2.22;;;1.80;;
17818;SDS011;9034;50.284;19.310;2023-07-30T00:29:20;1.65;;;1.55;;
17818;SDS011;9034;50.284;19.310;2023-07-30T00:30:23;2.67;;;2.00;;
17818;SDS011;9034;50.284;19.310;2023-07-30T00:31:26;2.40;;;2.20;;
17818;SDS011;9034;50.284;19.310;2023-07-30T00:32:28;1.80;;;1.70;;
17818;SDS011;9034;50.284;19.310;2023-07-30T00:33:31;2.10;;;1.75;;
17818;SDS011;9034;50.284;19.310;2023-07-30T00:34:33;2.50;;;1.88;;
17818;SDS011;9034;50.284;19.310;2023-07-30T00:35:36;1.70;;;1.60;;
17818;SDS011;9034;50.284;19.310;2023-07-30T00:36:38;1.98;;;1.88;;
17818;SDS011;9034;50.284;19.310;2023-07-30T00:37:41;2.40;;;1.75;;
17818;SDS011;9034;50.284;19.310;2023-07-30T00:38:43;2.58;;;1.92;;
17818;SDS011;9034;50.284;19.310;2023-07-30T00:39:46;2.63;;;1.95;;
17818;SDS011;9034;50.284;19.310;2023-07-30T00:40:48;2.28;;;1.90;;
17818;SDS011;9034;50.284;19.310;2023-07-30T00:41:51;2.53;;;1.85;;
17818;SDS011;9034;50.284;19.310;2023-07-30T00:42:54;1.75;;;1.65;;
17818;SDS011;9034;50.284;19.310;2023-07-30T00:43:56;2.00;;;1.85;;
17818;SDS011;9034;50.284;19.310;2023-07-30T00:44:59;2.03;;;1.92;;
17818;SDS011;9034;50.284;19.310;2023-07-30T00:46:03;1.80;;;1.70;;
17818;SDS011;9034;50.284;19.310;2023-07-30T00:47:05;2.35;;;1.83;;
17818;SDS011;9034;50.284;19.310;2023-07-30T00:48:08;1.80;;;1.70;;
17818;SDS011;9034;50.284;19.310;2023-07-30T00:49:10;2.25;;;1.80;;
17818;SDS011;9034;50.284;19.310;2023-07-30T00:50:14;1.98;;;1.67;;
17818;SDS011;9034;50.284;19.310;2023-07-30T00:51:16;2.45;;;1.83;;
17818;SDS011;9034;50.284;19.310;2023-07-30T00:52:20;1.80;;;1.70;;
17818;SDS011;9034;50.284;19.310;2023-07-30T00:53:22;2.30;;;1.80;;
17818;SDS011;9034;50.284;19.310;2023-07-30T00:54:26;2.17;;;1.85;;
17818;SDS011;9034;50.284;19.310;2023-07-30T00:55:28;1.90;;;1.80;;
17818;SDS011;9034;50.284;19.310;2023-07-30T00:56:31;2.00;;;1.90;;
17818;SDS011;9034;50.284;19.310;2023-07-30T00:57:33;2.20;;;2.00;;
17818;SDS011;9034;50.284;19.310;2023-07-30T00:58:37;2.10;;;1.90;;
17818;SDS011;9034;50.284;19.310;2023-07-30T00:59:39;1.80;;;1.60;;
17818;SDS011;9034;50.284;19.310;2023-07-30T01:00:41;2.20;;;2.00;;
17818;SDS011;9034;50.284;19.310;2023-07-30T01:01:46;2.05;;;1.85;;
17818;SDS011;9034;50.284;19.310;2023-07-30T01:02:48;1.90;;;1.70;;
17818;SDS011;9034;50.284;19.310;2023-07-30T01:03:51;1.77;;;1.67;;
17818;SDS011;9034;50.284;19.310;2023-07-30T01:04:53;2.08;;;1.88;;
17818;SDS011;9034;50.284;19.310;2023-07-30T01:05:56;1.70;;;1.60;;
17818;SDS011;9034;50.284;19.310;2023-07-30T01:06:58;2.42;;;1.70;;
17818;SDS011;9034;50.284;19.310;2023-07-30T01:08:01;2.00;;;1.80;;
17818;SDS011;9034;50.284;19.310;2023-07-30T01:09:03;1.77;;;1.60;;
17818;SDS011;9034;50.284;19.310;2023-07-30T01:10:06;2.22;;;1.55;;
17818;SDS011;9034;50.284;19.310;2023-07-30T01:11:09;3.60;;;1.70;;
17818;SDS011;9034;50.284;19.310;2023-07-30T01:12:12;3.17;;;1.90;;
17818;SDS011;9034;50.284;19.310;2023-07-30T01:13:16;1.60;;;1.50;;
17818;SDS011;9034;50.284;19.310;2023-07-30T01:14:19;1.73;;;1.63;;
17818;SDS011;9034;50.284;19.310;2023-07-30T01:15:21;1.67;;;1.48;;
17818;SDS011;9034;50.284;19.310;2023-07-30T01:16:24;2.00;;;1.50;;
17818;SDS011;9034;50.284;19.310;2023-07-30T01:17:28;1.73;;;1.52;;
17818;SDS011;9034;50.284;19.310;2023-07-30T01:18:31;1.80;;;1.70;;
17818;SDS011;9034;50.284;19.310;2023-07-30T01:19:33;1.60;;;1.50;;
17818;SDS011;9034;50.284;19.310;2023-07-30T01:20:36;2.33;;;1.80;;
17818;SDS011;9034;50.284;19.310;2023-07-30T01:21:40;2.00;;;1.65;;
17818;SDS011;9034;50.284;19.310;2023-07-30T01:22:42;1.60;;;1.50;;
17818;SDS011;9034;50.284;19.310;2023-07-30T01:23:44;2.00;;;1.73;;
17818;SDS011;9034;50.284;19.310;2023-07-30T01:24:47;2.40;;;1.90;;
17818;SDS011;9034;50.284;19.310;2023-07-30T01:25:50;1.40;;;1.30;;
17818;SDS011;9034;50.284;19.310;2023-07-30T01:26:56;1.95;;;1.83;;
17818;SDS011;9034;50.284;19.310;2023-07-30T01:28:02;2.35;;;1.70;;
17818;SDS011;9034;50.284;19.310;2023-07-30T01:29:09;2.38;;;1.70;;
17818;SDS011;9034;50.284;19.310;2023-07-30T01:30:16;1.98;;;1.80;;
17818;SDS011;9034;50.284;19.310;2023-07-30T01:31:20;1.75;;;1.65;;
17818;SDS011;9034;50.284;19.310;2023-07-30T01:32:26;1.60;;;1.50;;
17818;SDS011;9034;50.284;19.310;2023-07-30T01:33:30;1.80;;;1.70;;
17818;SDS011;9034;50.284;19.310;2023-07-30T01:34:34;2.17;;;1.70;;
17818;SDS011;9034;50.284;19.310;2023-07-30T01:35:37;1.85;;;1.70;;
17818;SDS011;9034;50.284;19.310;2023-07-30T01:36:41;1.65;;;1.55;;
17818;SDS011;9034;50.284;19.310;2023-07-30T01:37:43;1.75;;;1.50;;
17818;SDS011;9034;50.284;19.310;2023-07-30T01:38:47;2.13;;;1.70;;
17818;SDS011;9034;50.284;19.310;2023-07-30T01:39:49;1.83;;;1.73;;
17818;SDS011;9034;50.284;19.310;2023-07-30T01:40:52;1.58;;;1.48;;
17818;SDS011;9034;50.284;19.310;2023-07-30T01:41:54;1.50;;;1.40;;
17818;SDS011;9034;50.284;19.310;2023-07-30T01:42:57;1.77;;;1.67;;
17818;SDS011;9034;50.284;19.310;2023-07-30T01:44:00;2.42;;;1.70;;
17818;SDS011;9034;50.284;19.310;2023-07-30T01:45:03;1.70;;;1.60;;
17818;SDS011;9034;50.284;19.310;2023-07-30T01:46:06;1.50;;;1.40;;
17818;SDS011;9034;50.284;19.310;2023-07-30T01:47:09;2.28;;;1.75;;
17818;SDS011;9034;50.284;19.310;2023-07-30T01:48:11;1.88;;;1.77;;
17818;SDS011;9034;50.284;19.310;2023-07-30T01:49:14;1.50;;;1.40;;
17818;SDS011;9034;50.284;19.310;2023-07-30T01:50:16;1.67;;;1.58;;
17818;SDS011;9034;50.284;19.310;2023-07-30T01:51:19;1.65;;;1.52;;
17818;SDS011;9034;50.284;19.310;2023-07-30T01:52:22;1.55;;;1.45;;
17818;SDS011;9034;50.284;19.310;2023-07-30T01:53:25;1.60;;;1.50;;
17818;SDS011;9034;50.284;19.310;2023-07-30T01:54:27;2.15;;;1.65;;
17818;SDS011;9034;50.284;19.310;2023-07-30T01:55:30;1.98;;;1.88;;
17818;SDS011;9034;50.284;19.310;2023-07-30T01:56:32;1.73;;;1.63;;
17818;SDS011;9034;50.284;19.310;2023-07-30T01:57:34;1.73;;;1.63;;
17818;SDS011;9034;50.284;19.310;2023-07-30T01:58:36;1.50;;;1.40;;
17818;SDS011;9034;50.284;19.310;2023-07-30T01:59:39;1.90;;;1.80;;
17818;SDS011;9034;50.284;19.310;2023-07-30T02:00:41;1.58;;;1.48;;
17818;SDS011;9034;50.284;19.310;2023-07-30T02:01:44;1.70;;;1.60;;
17818;SDS011;9034;50.284;19.310;2023-07-30T02:02:46;1.60;;;1.50;;
17818;SDS011;9034;50.284;19.310;2023-07-30T02:03:49;2.05;;;1.88;;
17818;SDS011;9034;50.284;19.310;2023-07-30T02:04:51;2.00;;;1.80;;
17818;SDS011;9034;50.284;19.310;2023-07-30T02:05:54;1.77;;;1.67;;
17818;SDS011;9034;50.284;19.310;2023-07-30T02:06:56;1.70;;;1.60;;
17818;SDS011;9034;50.284;19.310;2023-07-30T02:08:00;2.35;;;1.85;;
17818;SDS011;9034;50.284;19.310;2023-07-30T02:09:05;1.98;;;1.52;;
17818;SDS011;9034;50.284;19.310;2023-07-30T02:10:08;1.60;;;1.50;;
17818;SDS011;9034;50.284;19.310;2023-07-30T02:11:10;1.90;;;1.70;;
17818;SDS011;9034;50.284;19.310;2023-07-30T02:12:13;2.15;;;1.40;;
17818;SDS011;9034;50.284;19.310;2023-07-30T02:13:15;2.17;;;1.80;;
17818;SDS011;9034;50.284;19.310;2023-07-30T02:14:18;1.92;;;1.77;;
17818;SDS011;9034;50.284;19.310;2023-07-30T02:15:23;2.17;;;2.03;;
17818;SDS011;9034;50.284;19.310;2023-07-30T02:16:25;1.50;;;1.40;;
17818;SDS011;9034;50.284;19.310;2023-07-30T02:17:27;1.90;;;1.80;;
17818;SDS011;9034;50.284;19.310;2023-07-30T02:18:29;1.98;;;1.75;;
17818;SDS011;9034;50.284;19.310;2023-07-30T02:19:32;1.83;;;1.70;;
17818;SDS011;9034;50.284;19.310;2023-07-30T02:20:34;1.70;;;1.60;;
17818;SDS011;9034;50.284;19.310;2023-07-30T02:23:23;2.00;;;1.80;;
17818;SDS011;9034;50.284;19.310;2023-07-30T02:24:26;2.20;;;1.92;;
17818;SDS011;9034;50.284;19.310;2023-07-30T02:25:28;2.45;;;1.90;;
17818;SDS011;9034;50.284;19.310;2023-07-30T02:26:31;2.95;;;2.30;;
17818;SDS011;9034;50.284;19.310;2023-07-30T02:27:32;1.83;;;1.70;;
17818;SDS011;9034;50.284;19.310;2023-07-30T02:28:35;1.90;;;1.80;;
17818;SDS011;9034;50.284;19.310;2023-07-30T02:29:37;2.10;;;1.90;;
17818;SDS011;9034;50.284;19.310;2023-07-30T02:30:40;1.83;;;1.73;;
17818;SDS011;9034;50.284;19.310;2023-07-30T02:31:42;2.00;;;1.80;;
17818;SDS011;9034;50.284;19.310;2023-07-30T02:32:44;2.53;;;2.08;;
17818;SDS011;9034;50.284;19.310;2023-07-30T02:33:48;2.10;;;1.90;;
17818;SDS011;9034;50.284;19.310;2023-07-30T02:34:50;2.28;;;2.03;;
17818;SDS011;9034;50.284;19.310;2023-07-30T02:35:53;2.78;;;1.70;;
17818;SDS011;9034;50.284;19.310;2023-07-30T02:36:55;3.10;;;1.83;;
17818;SDS011;9034;50.284;19.310;2023-07-30T02:37:58;1.90;;;1.80;;
17818;SDS011;9034;50.284;19.310;2023-07-30T02:39:01;3.53;;;2.20;;
17818;SDS011;9034;50.284;19.310;2023-07-30T02:40:05;2.38;;;1.90;;
17818;SDS011;9034;50.284;19.310;2023-07-30T02:41:07;2.05;;;1.80;;
17818;SDS011;9034;50.284;19.310;2023-07-30T02:42:10;2.38;;;1.83;;
17818;SDS011;9034;50.284;19.310;2023-07-30T02:43:12;1.70;;;1.60;;
17818;SDS011;9034;50.284;19.310;2023-07-30T02:44:14;2.78;;;1.77;;
17818;SDS011;9034;50.284;19.310;2023-07-30T02:45:17;3.50;;;2.20;;
17818;SDS011;9034;50.284;19.310;2023-07-30T02:46:19;2.65;;;2.35;;
17818;SDS011;9034;50.284;19.310;2023-07-30T02:47:22;2.17;;;1.95;;
17818;SDS011;9034;50.284;19.310;2023-07-30T02:48:24;2.78;;;2.00;;
17818;SDS011;9034;50.284;19.310;2023-07-30T02:49:27;2.78;;;2.08;;
17818;SDS011;9034;50.284;19.310;2023-07-30T02:50:29;3.40;;;2.05;;
17818;SDS011;9034;50.284;19.310;2023-07-30T02:51:30;2.05;;;1.95;;
17818;SDS011;9034;50.284;19.310;2023-07-30T02:52:33;2.13;;;1.70;;
17818;SDS011;9034;50.284;19.310;2023-07-30T02:53:35;2.60;;;2.10;;
17818;SDS011;9034;50.284;19.310;2023-07-30T02:54:39;1.88;;;1.75;;
17818;SDS011;9034;50.284;19.310;2023-07-30T02:55:41;2.75;;;2.03;;
17818;SDS011;9034;50.284;19.310;2023-07-30T02:56:44;3.33;;;2.00;;
17818;SDS011;9034;50.284;19.310;2023-07-30T02:57:47;3.53;;;2.03;;
17818;SDS011;9034;50.284;19.310;2023-07-30T02:58:50;2.50;;;1.92;;
17818;SDS011;9034;50.284;19.310;2023-07-30T02:59:52;1.95;;;1.80;;
17818;SDS011;9034;50.284;19.310;2023-07-30T03:00:55;1.80;;;1.70;;
17818;SDS011;9034;50.284;19.310;2023-07-30T03:01:57;1.88;;;1.77;;
17818;SDS011;9034;50.284;19.310;2023-07-30T03:03:00;1.85;;;1.63;;
17818;SDS011;9034;50.284;19.310;2023-07-30T03:04:03;3.45;;;2.10;;
17818;SDS011;9034;50.284;19.310;2023-07-30T03:05:07;2.42;;;2.15;;
17818;SDS011;9034;50.284;19.310;2023-07-30T03:06:09;2.10;;;1.90;;
17818;SDS011;9034;50.284;19.310;2023-07-30T03:07:12;4.53;;;1.88;;
17818;SDS011;9034;50.284;19.310;2023-07-30T03:08:14;2.78;;;1.90;;
17818;SDS011;9034;50.284;19.310;2023-07-30T03:09:17;2.25;;;1.90;;
17818;SDS011;9034;50.284;19.310;2023-07-30T03:10:20;3.50;;;2.00;;
17818;SDS011;9034;50.284;19.310;2023-07-30T03:11:23;3.95;;;2.13;;
17818;SDS011;9034;50.284;19.310;2023-07-30T03:12:25;3.30;;;1.90;;
17818;SDS011;9034;50.284;19.310;2023-07-30T03:13:27;3.40;;;1.80;;
17818;SDS011;9034;50.284;19.310;2023-07-30T03:14:29;2.50;;;1.90;;
17818;SDS011;9034;50.284;19.310;2023-07-30T03:15:32;1.70;;;1.60;;
17818;SDS011;9034;50.284;19.310;2023-07-30T03:16:34;2.33;;;1.95;;
17818;SDS011;9034;50.284;19.310;2023-07-30T03:17:37;2.22;;;1.92;;
17818;SDS011;9034;50.284;19.310;2023-07-30T03:18:39;4.63;;;1.88;;
17818;SDS011;9034;50.284;19.310;2023-07-30T03:19:42;2.33;;;1.75;;
17818;SDS011;9034;50.284;19.310;2023-07-30T03:20:44;1.80;;;1.70;;
17818;SDS011;9034;50.284;19.310;2023-07-30T03:21:47;1.80;;;1.70;;
17818;SDS011;9034;50.284;19.310;2023-07-30T03:22:48;3.67;;;2.15;;
17818;SDS011;9034;50.284;19.310;2023-07-30T03:23:51;3.63;;;1.75;;
17818;SDS011;9034;50.284;19.310;2023-07-30T03:24:53;1.92;;;1.77;;
17818;SDS011;9034;50.284;19.310;2023-07-30T03:25:57;2.22;;;1.80;;
17818;SDS011;9034;50.284;19.310;2023-07-30T03:26:59;1.80;;;1.70;;
17818;SDS011;9034;50.284;19.310;2023-07-30T03:28:02;1.77;;;1.67;;
17818;SDS011;9034;50.284;19.310;2023-07-30T03:29:04;3.20;;;1.80;;
17818;SDS011;9034;50.284;19.310;2023-07-30T03:30:07;2.00;;;1.80;;
17818;SDS011;9034;50.284;19.310;2023-07-30T03:31:10;2.13;;;1.88;;
17818;SDS011;9034;50.284;19.310;2023-07-30T03:32:12;2.00;;;1.75;;
17818;SDS011;9034;50.284;19.310;2023-07-30T03:33:15;2.80;;;1.85;;
17818;SDS011;9034;50.284;19.310;2023-07-30T03:34:17;2.33;;;1.90;;
17818;SDS011;9034;50.284;19.310;2023-07-30T03:35:20;2.10;;;1.90;;
17818;SDS011;9034;50.284;19.310;2023-07-30T03:36:22;2.75;;;1.67;;
17818;SDS011;9034;50.284;19.310;2023-07-30T03:37:26;1.60;;;1.50;;
17818;SDS011;9034;50.284;19.310;2023-07-30T03:38:28;1.95;;;1.70;;
17818;SDS011;9034;50.284;19.310;2023-07-30T03:39:30;2.15;;;1.88;;
17818;SDS011;9034;50.284;19.310;2023-07-30T03:40:32;2.15;;;1.80;;
17818;SDS011;9034;50.284;19.310;2023-07-30T03:41:36;2.17;;;1.98;;
17818;SDS011;9034;50.284;19.310;2023-07-30T03:42:39;1.98;;;1.88;;
17818;SDS011;9034;50.284;19.310;2023-07-30T03:43:41;1.60;;;1.50;;
17818;SDS011;9034;50.284;19.310;2023-07-30T03:44:44;2.00;;;1.80;;
17818;SDS011;9034;50.284;19.310;2023-07-30T03:45:46;2.72;;;1.75;;
17818;SDS011;9034;50.284;19.310;2023-07-30T03:46:50;2.20;;;1.67;;
17818;SDS011;9034;50.284;19.310;2023-07-30T03:47:52;2.05;;;1.88;;
17818;SDS011;9034;50.284;19.310;2023-07-30T03:48:55;2.67;;;1.80;;
17818;SDS011;9034;50.284;19.310;2023-07-30T03:49:57;1.95;;;1.70;;
17818;SDS011;9034;50.284;19.310;2023-07-30T03:51:00;2.10;;;1.90;;
17818;SDS011;9034;50.284;19.310;2023-07-30T03:52:02;1.95;;;1.80;;
17818;SDS011;9034;50.284;19.310;2023-07-30T03:53:05;2.13;;;1.83;;
17818;SDS011;9034;50.284;19.310;2023-07-30T03:54:07;3.75;;;1.77;;
17818;SDS011;9034;50.284;19.310;2023-07-30T03:55:10;2.20;;;2.00;;
17818;SDS011;9034;50.284;19.310;2023-07-30T03:56:12;2.85;;;1.80;;
17818;SDS011;9034;50.284;19.310;2023-07-30T03:57:17;1.70;;;1.60;;
17818;SDS011;9034;50.284;19.310;2023-07-30T03:58:19;1.70;;;1.60;;
17818;SDS011;9034;50.284;19.310;2023-07-30T03:59:21;1.88;;;1.50;;
17818;SDS011;9034;50.284;19.310;2023-07-30T04:00:23;2.45;;;2.10;;
17818;SDS011;9034;50.284;19.310;2023-07-30T04:01:26;1.80;;;1.70;;
17818;SDS011;9034;50.284;19.310;2023-07-30T04:02:29;2.58;;;1.90;;
17818;SDS011;9034;50.284;19.310;2023-07-30T04:03:31;1.88;;;1.77;;
17818;SDS011;9034;50.284;19.310;2023-07-30T04:04:34;2.00;;;1.83;;
17818;SDS011;9034;50.284;19.310;2023-07-30T04:05:36;1.90;;;1.80;;
17818;SDS011;9034;50.284;19.310;2023-07-30T04:06:39;2.92;;;1.83;;
17818;SDS011;9034;50.284;19.310;2023-07-30T04:07:41;2.15;;;1.95;;
17818;SDS011;9034;50.284;19.310;2023-07-30T04:08:44;2.08;;;1.88;;
17818;SDS011;9034;50.284;19.310;2023-07-30T04:09:46;1.90;;;1.80;;
17818;SDS011;9034;50.284;19.310;2023-07-30T04:10:51;1.85;;;1.70;;
17818;SDS011;9034;50.284;19.310;2023-07-30T04:11:52;2.00;;;1.90;;
17818;SDS011;9034;50.284;19.310;2023-07-30T04:12:56;1.90;;;1.80;;
17818;SDS011;9034;50.284;19.310;2023-07-30T04:14:00;2.75;;;2.20;;
17818;SDS011;9034;50.284;19.310;2023-07-30T04:15:02;1.88;;;1.77;;
17818;SDS011;9034;50.284;19.310;2023-07-30T04:16:05;2.20;;;2.00;;
17818;SDS011;9034;50.284;19.310;2023-07-30T04:17:07;4.30;;;2.58;;
17818;SDS011;9034;50.284;19.310;2023-07-30T04:18:10;1.98;;;1.83;;
17818;SDS011;9034;50.284;19.310;2023-07-30T04:19:12;2.03;;;1.83;;
17818;SDS011;9034;50.284;19.310;2023-07-30T04:20:15;2.00;;;1.90;;
17818;SDS011;9034;50.284;19.310;2023-07-30T04:21:19;2.38;;;2.17;;
17818;SDS011;9034;50.284;19.310;2023-07-30T04:22:22;2.00;;;1.90;;
17818;SDS011;9034;50.284;19.310;2023-07-30T04:23:24;2.00;;;1.85;;
17818;SDS011;9034;50.284;19.310;2023-07-30T04:24:26;1.83;;;1.70;;
17818;SDS011;9034;50.284;19.310;2023-07-30T04:25:28;2.25;;;2.00;;
17818;SDS011;9034;50.284;19.310;2023-07-30T04:26:31;2.45;;;2.20;;
17818;SDS011;9034;50.284;19.310;2023-07-30T04:27:33;2.65;;;2.45;;
17818;SDS011;9034;50.284;19.310;2023-07-30T04:28:37;2.60;;;2.40;;
17818;SDS011;9034;50.284;19.310;2023-07-30T04:29:40;2.22;;;2.08;;
17818;SDS011;9034;50.284;19.310;2023-07-30T04:30:43;2.60;;;2.40;;
17818;SDS011;9034;50.284;19.310;2023-07-30T04:31:45;2.88;;;2.50;;
17818;SDS011;9034;50.284;19.310;2023-07-30T04:32:48;2.30;;;2.10;;
17818;SDS011;9034;50.284;19.310;2023-07-30T04:33:50;3.25;;;2.55;;
17818;SDS011;9034;50.284;19.310;2023-07-30T04:34:52;2.22;;;2.03;;
17818;SDS011;9034;50.284;19.310;2023-07-30T04:35:55;2.38;;;2.17;;
17818;SDS011;9034;50.284;19.310;2023-07-30T04:36:57;2.33;;;2.10;;
17818;SDS011;9034;50.284;19.310;2023-07-30T04:38:01;2.40;;;1.90;;
17818;SDS011;9034;50.284;19.310;2023-07-30T04:39:03;1.95;;;1.85;;
17818;SDS011;9034;50.284;19.310;2023-07-30T04:40:08;4.18;;;2.10;;
17818;SDS011;9034;50.284;19.310;2023-07-30T04:41:11;2.42;;;2.22;;
17818;SDS011;9034;50.284;19.310;2023-07-30T04:42:20;2.83;;;2.45;;
17818;SDS011;9034;50.284;19.310;2023-07-30T04:43:22;2.30;;;2.10;;
17818;SDS011;9034;50.284;19.310;2023-07-30T04:44:30;3.50;;;2.30;;
17818;SDS011;9034;50.284;19.310;2023-07-30T04:45:40;2.60;;;2.30;;
17818;SDS011;9034;50.284;19.310;2023-07-30T04:46:43;4.00;;;2.30;;
17818;SDS011;9034;50.284;19.310;2023-07-30T04:47:45;3.40;;;2.20;;
17818;SDS011;9034;50.284;19.310;2023-07-30T04:48:48;4.22;;;2.08;;
17818;SDS011;9034;50.284;19.310;2023-07-30T04:49:53;2.38;;;2.17;;
17818;SDS011;9034;50.284;19.310;2023-07-30T04:50:55;4.88;;;2.45;;
17818;SDS011;9034;50.284;19.310;2023-07-30T04:51:59;3.35;;;2.30;;
17818;SDS011;9034;50.284;19.310;2023-07-30T04:53:02;2.83;;;2.53;;
17818;SDS011;9034;50.284;19.310;2023-07-30T04:54:03;2.80;;;2.50;;
17818;SDS011;9034;50.284;19.310;2023-07-30T04:55:07;3.15;;;2.47;;
17818;SDS011;9034;50.284;19.310;2023-07-30T04:56:09;2.55;;;2.35;;
17818;SDS011;9034;50.284;19.310;2023-07-30T04:57:12;4.35;;;2.63;;
17818;SDS011;9034;50.284;19.310;2023-07-30T04:58:14;3.55;;;2.85;;
17818;SDS011;9034;50.284;19.310;2023-07-30T04:59:17;5.18;;;2.63;;
17818;SDS011;9034;50.284;19.310;2023-07-30T05:00:20;3.10;;;2.72;;
17818;SDS011;9034;50.284;19.310;2023-07-30T05:01:23;2.85;;;2.53;;
17818;SDS011;9034;50.284;19.310;2023-07-30T05:02:25;2.92;;;2.40;;
17818;SDS011;9034;50.284;19.310;2023-07-30T05:03:28;2.85;;;2.63;;
17818;SDS011;9034;50.284;19.310;2023-07-30T05:04:30;2.97;;;2.60;;
17818;SDS011;9034;50.284;19.310;2023-07-30T05:05:32;3.05;;;2.67;;
17818;SDS011;9034;50.284;19.310;2023-07-30T05:06:35;4.80;;;3.00;;
17818;SDS011;9034;50.284;19.310;2023-07-30T05:07:37;4.40;;;2.70;;
17818;SDS011;9034;50.284;19.310;2023-07-30T05:08:39;2.97;;;2.67;;
17818;SDS011;9034;50.284;19.310;2023-07-30T05:09:41;3.72;;;2.70;;
17818;SDS011;9034;50.284;19.310;2023-07-30T05:10:44;3.45;;;2.80;;
17818;SDS011;9034;50.284;19.310;2023-07-30T05:11:46;3.30;;;2.75;;
17818;SDS011;9034;50.284;19.310;2023-07-30T05:12:49;4.40;;;3.13;;
17818;SDS011;9034;50.284;19.310;2023-07-30T05:13:51;5.25;;;3.05;;
17818;SDS011;9034;50.284;19.310;2023-07-30T05:14:53;4.35;;;3.00;;
17818;SDS011;9034;50.284;19.310;2023-07-30T05:15:57;4.00;;;3.03;;
17818;SDS011;9034;50.284;19.310;2023-07-30T05:17:00;5.40;;;2.78;;
17818;SDS011;9034;50.284;19.310;2023-07-30T05:18:02;3.70;;;3.03;;
17818;SDS011;9034;50.284;19.310;2023-07-30T05:19:04;4.43;;;3.05;;
17818;SDS011;9034;50.284;19.310;2023-07-30T05:20:07;5.03;;;2.53;;
17818;SDS011;9034;50.284;19.310;2023-07-30T05:21:11;2.70;;;2.50;;
17818;SDS011;9034;50.284;19.310;2023-07-30T05:22:12;3.25;;;2.42;;
17818;SDS011;9034;50.284;19.310;2023-07-30T05:23:15;3.42;;;2.33;;
17818;SDS011;9034;50.284;19.310;2023-07-30T05:24:17;2.70;;;2.20;;
17818;SDS011;9034;50.284;19.310;2023-07-30T05:25:20;2.83;;;2.22;;
17818;SDS011;9034;50.284;19.310;2023-07-30T05:26:22;2.78;;;2.30;;
17818;SDS011;9034;50.284;19.310;2023-07-30T05:27:25;2.35;;;2.15;;
17818;SDS011;9034;50.284;19.310;2023-07-30T05:28:29;2.60;;;2.17;;
17818;SDS011;9034;50.284;19.310;2023-07-30T05:29:32;3.63;;;2.30;;
17818;SDS011;9034;50.284;19.310;2023-07-30T05:30:34;3.55;;;2.20;;
17818;SDS011;9034;50.284;19.310;2023-07-30T05:31:38;3.15;;;2.20;;
17818;SDS011;9034;50.284;19.310;2023-07-30T05:32:41;2.75;;;2.20;;
17818;SDS011;9034;50.284;19.310;2023-07-30T05:33:44;3.93;;;2.33;;
17818;SDS011;9034;50.284;19.310;2023-07-30T05:34:45;4.35;;;2.63;;
17818;SDS011;9034;50.284;19.310;2023-07-30T05:35:48;2.40;;;2.20;;
17818;SDS011;9034;50.284;19.310;2023-07-30T05:36:50;2.95;;;2.35;;
17818;SDS011;9034;50.284;19.310;2023-07-30T05:37:53;5.40;;;2.40;;
17818;SDS011;9034;50.284;19.310;2023-07-30T05:38:55;4.07;;;2.10;;
17818;SDS011;9034;50.284;19.310;2023-07-30T05:39:58;2.33;;;2.13;;
17818;SDS011;9034;50.284;19.310;2023-07-30T05:41:00;3.07;;;2.20;;
17818;SDS011;9034;50.284;19.310;2023-07-30T05:42:03;2.60;;;2.17;;
17818;SDS011;9034;50.284;19.310;2023-07-30T05:43:05;2.97;;;1.93;;
17818;SDS011;9034;50.284;19.310;2023-07-30T05:44:08;2.77;;;1.90;;
17818;SDS011;9034;50.284;19.310;2023-07-30T05:45:10;1.63;;;1.53;;
17818;SDS011;9034;50.284;19.310;2023-07-30T05:46:13;1.80;;;1.70;;
17818;SDS011;9034;50.284;19.310;2023-07-30T05:47:16;1.70;;;1.60;;
17818;SDS011;9034;50.284;19.310;2023-07-30T05:48:19;2.23;;;1.70;;
17818;SDS011;9034;50.284;19.310;2023-07-30T05:49:21;3.13;;;1.80;;
17818;SDS011;9034;50.284;19.310;2023-07-30T05:50:24;1.83;;;1.53;;
17818;SDS011;9034;50.284;19.310;2023-07-30T05:51:26;2.00;;;1.90;;
17818;SDS011;9034;50.284;19.310;2023-07-30T05:52:28;2.40;;;1.80;;
17818;SDS011;9034;50.284;19.310;2023-07-30T05:53:30;2.77;;;1.70;;
17818;SDS011;9034;50.284;19.310;2023-07-30T05:54:35;2.23;;;1.57;;
17818;SDS011;9034;50.284;19.310;2023-07-30T05:55:37;2.37;;;1.80;;
17818;SDS011;9034;50.284;19.310;2023-07-30T05:56:40;2.67;;;1.80;;
17818;SDS011;9034;50.284;19.310;2023-07-30T05:57:42;1.70;;;1.60;;
17818;SDS011;9034;50.284;19.310;2023-07-30T05:58:45;3.77;;;1.80;;
17818;SDS011;9034;50.284;19.310;2023-07-30T05:59:47;2.30;;;1.73;;
17818;SDS011;9034;50.284;19.310;2023-07-30T06:00:48;3.47;;;2.10;;
17818;SDS011;9034;50.284;19.310;2023-07-30T06:01:51;3.37;;;1.70;;
17818;SDS011;9034;50.284;19.310;2023-07-30T06:02:55;1.53;;;1.43;;
17818;SDS011;9034;50.284;19.310;2023-07-30T06:03:58;1.80;;;1.50;;
17818;SDS011;9034;50.284;19.310;2023-07-30T06:05:00;3.30;;;1.40;;
17818;SDS011;9034;50.284;19.310;2023-07-30T06:06:02;1.60;;;1.50;;
17818;SDS011;9034;50.284;19.310;2023-07-30T06:07:04;2.03;;;1.60;;
17818;SDS011;9034;50.284;19.310;2023-07-30T06:08:07;2.00;;;1.80;;
17818;SDS011;9034;50.284;19.310;2023-07-30T06:09:09;2.33;;;1.67;;
17818;SDS011;9034;50.284;19.310;2023-07-30T06:10:13;2.00;;;1.53;;
17818;SDS011;9034;50.284;19.310;2023-07-30T06:11:15;1.40;;;1.30;;
17818;SDS011;9034;50.284;19.310;2023-07-30T06:12:18;1.80;;;1.60;;
17818;SDS011;9034;50.284;19.310;2023-07-30T06:13:20;1.73;;;1.50;;
17818;SDS011;9034;50.284;19.310;2023-07-30T06:14:23;2.30;;;1.73;;
17818;SDS011;9034;50.284;19.310;2023-07-30T06:15:25;1.63;;;1.53;;
17818;SDS011;9034;50.284;19.310;2023-07-30T06:16:28;3.13;;;1.63;;
17818;SDS011;9034;50.284;19.310;2023-07-30T06:17:30;1.50;;;1.40;;
17818;SDS011;9034;50.284;19.310;2023-07-30T06:18:36;1.60;;;1.50;;
17818;SDS011;9034;50.284;19.310;2023-07-30T06:19:38;1.90;;;1.70;;